createdAt,value
2022-12-08T00:05:45.159Z,20.23
2022-12-08T00:15:48.214Z,22.57
2022-12-08T00:25:52.667Z,20.17
2022-12-08T00:35:55.763Z,17.43
2022-12-08T00:46:00.239Z,19.60
2022-12-08T00:56:03.278Z,21.07
2022-12-08T01:06:08.951Z,21.10
2022-12-08T01:16:19.802Z,23.00
2022-12-08T01:26:24.276Z,20.27
2022-12-08T01:36:29.110Z,22.43
2022-12-08T01:46:34.536Z,20.83
2022-12-08T01:56:42.613Z,20.87
2022-12-08T02:06:50.529Z,21.47
2022-12-08T02:17:01.949Z,19.23
2022-12-08T02:27:38.556Z,21.00
2022-12-08T02:37:56.743Z,18.80
2022-12-08T02:48:00.977Z,15.67
2022-12-08T02:58:36.391Z,14.77
2022-12-08T03:08:48.828Z,13.87
2022-12-08T03:19:01.153Z,12.00
2022-12-08T03:29:05.061Z,10.47
2022-12-08T03:39:09.482Z,8.53
2022-12-08T03:49:12.626Z,8.20
2022-12-08T03:59:17.138Z,8.47
2022-12-08T04:09:20.217Z,7.27
2022-12-08T04:19:24.705Z,7.17
2022-12-08T04:29:30.466Z,7.43
2022-12-08T04:39:34.987Z,8.53
2022-12-08T04:49:38.034Z,8.13
2022-12-08T04:59:42.432Z,6.50
2022-12-08T05:09:45.901Z,5.67
2022-12-08T05:19:50.328Z,6.07
2022-12-08T05:29:53.418Z,6.97
2022-12-08T05:39:57.824Z,7.40
2022-12-08T05:50:00.842Z,7.13
2022-12-08T06:00:06.470Z,7.03
2022-12-08T06:10:10.462Z,7.57
2022-12-08T06:20:15.479Z,6.60
2022-12-08T06:30:19.353Z,9.00
2022-12-08T06:40:23.730Z,12.10
2022-12-08T06:50:26.795Z,7.60
2022-12-08T07:00:31.229Z,7.60
2022-12-08T07:10:34.956Z,6.47
2022-12-08T07:20:39.574Z,6.80
2022-12-08T07:30:42.656Z,7.33
2022-12-08T07:40:47.156Z,8.40
2022-12-08T07:50:50.203Z,7.93
2022-12-08T08:00:54.906Z,8.87
2022-12-08T08:10:58.024Z,6.33
2022-12-08T08:21:15.864Z,8.07
2022-12-08T08:31:27.040Z,8.23
2022-12-08T08:41:31.921Z,7.40
2022-12-08T08:51:35.270Z,7.40
2022-12-08T09:01:39.768Z,8.93
2022-12-08T09:11:43.143Z,7.73
2022-12-08T09:21:47.733Z,7.93
2022-12-08T09:31:50.940Z,6.90
2022-12-08T09:42:00.903Z,8.40
2022-12-08T09:52:04.692Z,9.30
2022-12-08T10:02:25.305Z,11.63
2022-12-08T10:12:38.477Z,9.80
2022-12-08T10:22:45.109Z,13.53
2022-12-08T10:32:52.069Z,10.77
2022-12-08T10:42:59.459Z,14.07
2022-12-08T10:53:12.475Z,12.33
2022-12-08T11:03:24.825Z,10.23
2022-12-08T11:13:29.909Z,9.93
2022-12-08T11:23:37.323Z,12.03
2022-12-08T11:33:43.006Z,10.20
2022-12-08T11:43:56.337Z,10.67
2022-12-08T11:54:12.964Z,10.77
2022-12-08T12:04:25.311Z,11.97
2022-12-08T12:14:45.190Z,11.17
2022-12-08T12:24:52.915Z,11.67
2022-12-08T12:34:58.198Z,12.47
2022-12-08T12:45:26.951Z,11.30
2022-12-08T12:55:50.005Z,12.73
2022-12-08T13:05:55.639Z,13.83
2022-12-08T13:16:17.122Z,12.87
2022-12-08T13:26:25.068Z,13.17
2022-12-08T13:36:33.860Z,12.57
2022-12-08T13:57:14.693Z,12.57
2022-12-08T14:07:19.740Z,13.03
2022-12-08T14:17:25.662Z,12.37
2022-12-08T14:27:35.673Z,13.23
2022-12-08T14:37:42.018Z,13.57
2022-12-08T14:47:48.512Z,13.40
2022-12-08T14:57:51.664Z,16.43
2022-12-08T15:08:02.611Z,13.60
2022-12-08T15:18:15.147Z,14.47
2022-12-08T15:28:27.984Z,17.87
2022-12-08T15:38:32.749Z,15.30
2022-12-08T15:48:38.818Z,24.50
2022-12-08T15:58:58.637Z,12.10
2022-12-08T16:09:11.945Z,14.23
2022-12-08T16:19:15.992Z,18.40
2022-12-08T16:29:22.610Z,16.33
2022-12-08T16:39:25.695Z,16.17
2022-12-08T16:49:30.202Z,17.13
2022-12-08T16:59:33.318Z,15.00
2022-12-08T17:09:37.696Z,14.53
2022-12-08T17:19:40.778Z,17.43
2022-12-08T17:29:45.168Z,15.57
2022-12-08T17:39:48.252Z,15.20
2022-12-08T17:49:52.933Z,18.57
2022-12-08T17:59:56.244Z,17.40
2022-12-08T18:10:00.845Z,18.17
2022-12-08T18:20:04.402Z,16.97
2022-12-08T18:30:12.942Z,18.13
2022-12-08T18:40:16.649Z,18.60
2022-12-08T18:50:21.394Z,20.60
2022-12-08T19:00:24.654Z,20.53
2022-12-08T19:10:29.340Z,20.23
2022-12-08T19:20:32.571Z,17.33
2022-12-08T19:30:37.008Z,19.00
2022-12-08T19:40:59.581Z,19.33
2022-12-08T19:51:04.151Z,21.13
2022-12-08T20:01:07.594Z,18.67
2022-12-08T20:11:12.139Z,19.83
2022-12-08T20:21:15.179Z,17.77
2022-12-08T20:31:24.524Z,20.00
2022-12-08T20:41:27.730Z,18.77
2022-12-08T20:51:34.436Z,20.93
2022-12-08T21:01:37.526Z,18.83
2022-12-08T21:11:42.180Z,18.47
2022-12-08T21:21:45.883Z,18.20
2022-12-08T21:31:50.580Z,21.87
2022-12-08T21:42:11.402Z,18.40
2022-12-08T21:52:15.984Z,19.37
2022-12-08T22:02:22.492Z,19.03
2022-12-08T22:12:27.500Z,18.33
2022-12-08T22:22:30.673Z,17.23
2022-12-08T22:32:35.208Z,18.73
2022-12-08T22:42:38.239Z,22.63
2022-12-08T22:52:42.636Z,19.27
2022-12-08T23:02:45.788Z,20.97
2022-12-08T23:12:50.221Z,19.60
2022-12-08T23:22:53.393Z,19.00
2022-12-08T23:32:57.927Z,22.63
2022-12-08T23:43:01.198Z,20.57
2022-12-08T23:53:05.786Z,24.03
